Terminal Aerodrome Forecast
Issued by NWS Twin Cities, MN

Home | Current Version | Previous Version | Text Only | Print | Product List | Glossary Off
Versions: 1 2 3 4 5 6 7 8 9 10 11 12 13 14 15 16 17 18 19

000
FTUS43 KMPX 250800 AAA
TAFEAU
TAF AMD
KEAU 250819Z 2508/2606 31010KT P6SM -SN OVC020
     FM251200 29009KT P6SM SCT020 BKN050
     FM251400 26005KT P6SM SCT050
     FM260000 VRB03KT P6SM SCT050 BKN120=

USA.gov is the U.S. government's official web portal to all federal, state and local government web resources and services.